Trelew, Argentina
Current Conditions -  °F | °C
As of 6:00 PM on Monday 22 Dec 2014 (Local Time) from SAVC Reporting Station
Clear Clear  
Wind Chill: 77°   Ceiling: Unl
Heat Index: 78°   Visibility: 6mi
Dew Point: 41°   Wind: 23mph
Humidity: 28%   Direction: 270°W
Pressure: 29.68"   Gusts: 33mph
Location:  43.25°S, 65.3°W
Report Text: SAVC 222100Z 27020G29KT CAVOK 25/05 Q1005
Loading
Personal Weather Stations






























Interactive Weather Map New forecast layout! Learn more

10-Day Weather Forecast

Advertisements
Track Severe Weather on mobile